createdAt,value
2022-10-04T00:00:02.622Z,0.00
2022-10-04T00:01:02.612Z,0.00
2022-10-04T00:02:02.698Z,0.00
2022-10-04T00:03:02.666Z,0.00
2022-10-04T00:04:02.594Z,0.00
2022-10-04T00:05:02.600Z,0.00
2022-10-04T00:06:02.574Z,0.00
2022-10-04T00:07:02.569Z,0.00
2022-10-04T00:08:02.558Z,0.00
2022-10-04T00:09:02.579Z,0.00
2022-10-04T00:10:02.560Z,0.00
2022-10-04T00:11:02.547Z,0.00
2022-10-04T00:12:02.534Z,0.00
2022-10-04T00:13:02.539Z,0.00
2022-10-04T00:14:02.519Z,0.00
2022-10-04T00:15:02.531Z,0.00
2022-10-04T00:16:02.556Z,0.00
2022-10-04T00:17:02.497Z,0.00
2022-10-04T00:18:02.510Z,0.00
2022-10-04T00:19:02.504Z,0.00
2022-10-04T00:20:02.484Z,0.00
2022-10-04T00:21:02.491Z,0.00
2022-10-04T00:22:02.470Z,0.00
2022-10-04T00:23:02.464Z,0.00
2022-10-04T00:24:02.472Z,0.00
2022-10-04T00:25:02.455Z,0.00
2022-10-04T00:26:02.458Z,0.00
2022-10-04T00:27:02.464Z,0.00
2022-10-04T00:28:02.465Z,0.00
2022-10-04T00:29:02.415Z,0.00
2022-10-04T00:30:02.435Z,0.00
2022-10-04T00:31:02.479Z,0.00
2022-10-04T00:32:02.399Z,0.00
2022-10-04T00:33:02.409Z,0.00
2022-10-04T00:34:02.396Z,0.00
2022-10-04T00:35:02.385Z,0.00
2022-10-04T00:36:02.382Z,0.00
2022-10-04T00:37:02.376Z,0.00
2022-10-04T00:38:02.385Z,0.00
2022-10-04T00:39:02.369Z,0.00
2022-10-04T00:40:02.343Z,0.00
2022-10-04T00:41:02.336Z,0.00
2022-10-04T00:42:02.331Z,0.00
2022-10-04T00:43:02.330Z,0.00
2022-10-04T00:44:02.334Z,0.00
2022-10-04T00:45:02.344Z,0.00
2022-10-04T00:46:02.369Z,0.00
2022-10-04T00:47:02.308Z,0.00
2022-10-04T00:48:02.304Z,0.00
2022-10-04T00:49:02.292Z,0.00
2022-10-04T00:50:02.297Z,0.00
2022-10-04T00:51:02.306Z,0.00
2022-10-04T00:52:02.260Z,0.00
2022-10-04T00:53:02.260Z,0.00
2022-10-04T00:54:02.247Z,0.00
2022-10-04T00:55:02.264Z,0.00
2022-10-04T00:56:02.228Z,0.00
2022-10-04T00:57:02.226Z,0.00
2022-10-04T00:58:02.212Z,0.00
2022-10-04T00:59:02.251Z,0.00
2022-10-04T01:00:02.216Z,0.00
2022-10-04T01:01:02.292Z,0.00
2022-10-04T01:02:02.237Z,0.00
2022-10-04T01:03:02.192Z,0.00
2022-10-04T01:04:02.169Z,0.00
2022-10-04T01:05:02.166Z,0.00
2022-10-04T01:06:02.172Z,0.00
2022-10-04T01:07:02.154Z,0.00
2022-10-04T01:08:02.166Z,0.00
2022-10-04T01:09:02.145Z,0.00
2022-10-04T01:10:02.123Z,0.00
2022-10-04T01:11:02.124Z,0.00
2022-10-04T01:12:02.133Z,0.00
2022-10-04T01:13:02.112Z,0.00
2022-10-04T01:14:02.096Z,0.00
2022-10-04T01:15:02.089Z,0.00
2022-10-04T01:16:02.139Z,0.00
2022-10-04T01:17:02.076Z,0.00
2022-10-04T01:18:03.323Z,0.00
2022-10-04T01:19:02.062Z,0.00
2022-10-04T01:20:02.057Z,0.00
2022-10-04T01:21:02.076Z,0.00
2022-10-04T01:22:02.121Z,0.00
2022-10-04T01:23:02.035Z,0.00
2022-10-04T01:24:02.023Z,0.00
2022-10-04T01:25:02.008Z,0.00
2022-10-04T01:26:02.006Z,0.00
2022-10-04T01:27:02.024Z,0.00
2022-10-04T01:28:02.072Z,0.00
2022-10-04T01:29:01.978Z,0.00
2022-10-04T01:30:01.984Z,0.00
2022-10-04T01:31:02.019Z,0.00
2022-10-04T01:32:01.963Z,0.00
2022-10-04T01:33:01.973Z,0.00
2022-10-04T01:34:01.946Z,0.00
2022-10-04T01:35:01.950Z,0.00
2022-10-04T01:36:01.944Z,0.00
2022-10-04T01:37:01.944Z,0.00
2022-10-04T01:38:01.947Z,0.00
2022-10-04T01:39:01.922Z,0.00
2022-10-04T01:40:01.913Z,0.00
2022-10-04T01:41:01.903Z,0.00
2022-10-04T01:42:01.917Z,0.00
2022-10-04T01:43:01.900Z,0.00
2022-10-04T01:44:01.923Z,0.00
2022-10-04T01:45:01.875Z,0.00
2022-10-04T01:46:01.903Z,0.00
2022-10-04T01:47:01.876Z,0.00
2022-10-04T01:48:01.856Z,0.00
2022-10-04T01:49:01.852Z,0.00
2022-10-04T01:50:01.855Z,0.00
2022-10-04T01:51:01.835Z,0.00
2022-10-04T01:52:01.824Z,0.00
2022-10-04T01:53:01.828Z,0.00
2022-10-04T01:54:01.813Z,0.00
2022-10-04T01:55:01.810Z,0.00
2022-10-04T01:56:01.824Z,0.00
2022-10-04T01:57:01.812Z,0.00
2022-10-04T01:58:01.785Z,0.00
2022-10-04T01:59:01.780Z,0.00
2022-10-04T02:00:01.776Z,0.00
2022-10-04T02:01:01.847Z,0.00
2022-10-04T02:02:01.749Z,0.00
2022-10-04T02:03:01.752Z,0.00
2022-10-04T02:04:01.763Z,0.00
2022-10-04T02:05:01.820Z,0.00
2022-10-04T02:06:01.731Z,0.00
2022-10-04T02:07:01.724Z,0.00
2022-10-04T02:08:01.715Z,0.00
2022-10-04T02:09:01.701Z,0.00
2022-10-04T02:10:01.720Z,0.00
2022-10-04T02:11:01.697Z,0.00
2022-10-04T02:12:01.708Z,0.00
2022-10-04T02:13:01.685Z,0.00
2022-10-04T02:14:01.678Z,0.00
2022-10-04T02:15:01.681Z,0.00
2022-10-04T02:16:01.783Z,0.00
2022-10-04T02:17:01.690Z,0.00
2022-10-04T02:18:01.674Z,0.00
2022-10-04T02:19:01.651Z,0.00
2022-10-04T02:20:01.643Z,0.00
2022-10-04T02:21:01.630Z,0.00
2022-10-04T02:22:01.620Z,0.00
2022-10-04T02:23:01.618Z,0.00
2022-10-04T02:24:01.622Z,0.00
2022-10-04T02:25:01.597Z,0.00
2022-10-04T02:26:01.594Z,0.00
2022-10-04T02:27:01.586Z,0.00
2022-10-04T02:28:01.611Z,0.00
2022-10-04T02:29:01.571Z,0.00
2022-10-04T02:30:01.580Z,0.00
2022-10-04T02:31:01.594Z,0.00
2022-10-04T02:32:01.549Z,0.00
2022-10-04T02:33:01.562Z,0.00
2022-10-04T02:34:01.542Z,0.00
2022-10-04T02:35:01.535Z,0.00
2022-10-04T02:36:01.543Z,0.00
2022-10-04T02:37:01.533Z,0.00
2022-10-04T02:38:01.504Z,0.00
2022-10-04T02:39:01.506Z,0.00
2022-10-04T02:40:01.507Z,0.00
2022-10-04T02:41:01.499Z,0.00
2022-10-04T02:42:01.479Z,0.00
2022-10-04T02:43:01.491Z,0.00
2022-10-04T02:44:01.470Z,0.00
2022-10-04T02:45:01.469Z,0.00
2022-10-04T02:46:01.509Z,0.00
2022-10-04T02:47:01.449Z,0.00
2022-10-04T02:48:01.441Z,0.00
2022-10-04T02:49:01.447Z,0.00
2022-10-04T02:50:01.435Z,0.00
2022-10-04T02:51:01.430Z,0.00
2022-10-04T02:52:01.438Z,0.00
2022-10-04T02:53:01.407Z,0.00
2022-10-04T02:54:03.659Z,0.00
2022-10-04T02:55:01.396Z,0.00
2022-10-04T02:56:01.386Z,0.00
2022-10-04T02:57:01.397Z,0.00
2022-10-04T02:58:01.470Z,0.00
2022-10-04T02:59:01.353Z,0.00
2022-10-04T03:00:01.353Z,0.00
2022-10-04T03:01:01.380Z,0.00
2022-10-04T03:02:01.396Z,0.00
2022-10-04T03:03:01.352Z,0.00
2022-10-04T03:04:01.316Z,0.00
2022-10-04T03:05:01.312Z,0.00
2022-10-04T03:06:01.300Z,0.00
2022-10-04T03:07:01.303Z,0.00
2022-10-04T03:08:01.296Z,0.00
2022-10-04T03:09:01.313Z,0.00
2022-10-04T03:10:01.291Z,0.00
2022-10-04T03:11:01.270Z,0.00
2022-10-04T03:12:01.269Z,0.00
2022-10-04T03:13:01.269Z,0.00
2022-10-04T03:14:01.273Z,0.00
2022-10-04T03:15:01.265Z,0.00
2022-10-04T03:16:01.271Z,0.00
2022-10-04T03:17:01.233Z,0.00
2022-10-04T03:18:01.226Z,0.00
2022-10-04T03:19:01.211Z,0.00
2022-10-04T03:20:01.215Z,0.00
2022-10-04T03:21:01.214Z,0.00
2022-10-04T03:22:08.193Z,0.00
2022-10-04T03:23:01.190Z,0.00
2022-10-04T03:24:01.230Z,0.00
2022-10-04T03:25:01.175Z,0.00
2022-10-04T03:26:01.180Z,0.00
2022-10-04T03:27:01.261Z,0.00
2022-10-04T03:28:01.235Z,0.00
2022-10-04T03:29:01.193Z,0.00
2022-10-04T03:30:01.141Z,0.00
2022-10-04T03:31:01.262Z,0.00
2022-10-04T03:32:01.121Z,0.00
2022-10-04T03:33:01.149Z,0.00
2022-10-04T03:34:01.107Z,0.00
2022-10-04T03:35:01.101Z,0.00
2022-10-04T03:36:01.086Z,0.00
2022-10-04T03:37:01.088Z,0.00
2022-10-04T03:38:01.093Z,0.00
2022-10-04T03:39:01.081Z,0.00
2022-10-04T03:40:01.083Z,0.00
2022-10-04T03:41:01.048Z,0.00
2022-10-04T03:42:01.073Z,0.00
2022-10-04T03:43:01.074Z,0.00
2022-10-04T03:44:04.877Z,0.00
2022-10-04T03:45:01.041Z,0.00
2022-10-04T03:46:01.229Z,0.00
2022-10-04T03:47:01.031Z,0.00
2022-10-04T03:48:01.021Z,0.00
2022-10-04T03:49:01.002Z,0.00
2022-10-04T03:50:00.990Z,0.00
2022-10-04T03:51:00.978Z,0.00
2022-10-04T03:52:00.990Z,0.00
2022-10-04T03:53:00.989Z,0.00
2022-10-04T03:54:00.967Z,0.00
2022-10-04T03:55:00.966Z,0.00
2022-10-04T03:56:04.289Z,0.00
2022-10-04T03:57:00.935Z,0.00
2022-10-04T03:58:00.939Z,0.00
2022-10-04T03:59:00.955Z,0.00
2022-10-04T04:00:00.929Z,0.00
2022-10-04T04:01:00.952Z,0.00
2022-10-04T04:02:00.946Z,0.00
2022-10-04T04:03:00.992Z,0.00
2022-10-04T04:04:00.899Z,0.00
2022-10-04T04:05:00.920Z,0.00
2022-10-04T04:06:00.901Z,0.00
2022-10-04T04:07:00.887Z,0.00
2022-10-04T04:08:00.873Z,0.00
2022-10-04T04:09:00.870Z,0.00
2022-10-04T04:10:00.860Z,0.00
2022-10-04T04:11:00.911Z,0.00
2022-10-04T04:12:00.841Z,0.00
2022-10-04T04:13:00.948Z,0.00
2022-10-04T04:14:00.828Z,0.00
2022-10-04T04:15:00.828Z,0.00
2022-10-04T04:16:00.886Z,0.00
2022-10-04T04:17:00.814Z,0.00
2022-10-04T04:18:00.806Z,0.00
2022-10-04T04:19:00.938Z,0.00
2022-10-04T04:20:06.139Z,0.00
2022-10-04T04:21:00.821Z,0.00
2022-10-04T04:22:00.906Z,0.00
2022-10-04T04:23:00.774Z,0.00
2022-10-04T04:24:00.802Z,0.00
2022-10-04T04:25:00.768Z,0.00
2022-10-04T04:26:00.752Z,0.00
2022-10-04T04:27:00.788Z,0.00
2022-10-04T04:28:00.852Z,0.00
2022-10-04T04:29:00.737Z,0.00
2022-10-04T04:30:00.743Z,0.00
2022-10-04T04:31:00.779Z,0.00
2022-10-04T04:32:00.743Z,0.00
2022-10-04T04:33:00.726Z,0.00
2022-10-04T04:34:00.893Z,0.00
2022-10-04T04:35:00.713Z,0.00
2022-10-04T04:36:00.690Z,0.00
2022-10-04T04:37:00.680Z,0.00
2022-10-04T04:38:00.718Z,0.00
2022-10-04T04:39:00.724Z,0.00
2022-10-04T04:40:00.752Z,0.00
2022-10-04T04:41:01.303Z,0.00
2022-10-04T04:42:00.707Z,0.00
2022-10-04T04:43:00.650Z,0.00
2022-10-04T04:44:00.638Z,0.00
2022-10-04T04:45:00.761Z,0.00
2022-10-04T04:46:25.970Z,0.00
2022-10-04T04:47:01.640Z,0.00
2022-10-04T04:48:00.647Z,0.00
2022-10-04T04:49:00.623Z,0.00
2022-10-04T04:50:00.608Z,0.00
2022-10-04T04:51:00.606Z,0.00
2022-10-04T04:52:00.611Z,0.00
2022-10-04T04:53:00.577Z,1.00
2022-10-04T04:54:00.599Z,1.00
2022-10-04T04:55:00.601Z,1.00
2022-10-04T04:56:04.805Z,1.00
2022-10-04T04:57:00.584Z,1.00
2022-10-04T04:58:00.587Z,1.00
2022-10-04T04:59:00.561Z,1.00
2022-10-04T05:00:00.581Z,1.00
2022-10-04T05:01:00.686Z,2.00
2022-10-04T05:02:00.621Z,2.00
2022-10-04T05:03:00.588Z,1.00
2022-10-04T05:04:00.537Z,1.00
2022-10-04T05:05:00.509Z,2.00
2022-10-04T05:06:00.516Z,2.00
2022-10-04T05:07:00.559Z,2.00
2022-10-04T05:08:00.602Z,2.00
2022-10-04T05:09:00.494Z,3.00
2022-10-04T05:10:00.494Z,3.00
2022-10-04T05:11:00.517Z,3.00
2022-10-04T05:12:00.478Z,6.00
2022-10-04T05:13:00.464Z,5.00
2022-10-04T05:14:00.484Z,5.00
2022-10-04T05:15:00.499Z,5.00
2022-10-04T05:16:00.498Z,8.00
2022-10-04T05:17:00.429Z,10.00
2022-10-04T05:18:00.501Z,13.00
2022-10-04T05:19:00.447Z,14.00
2022-10-04T05:20:00.935Z,17.00
2022-10-04T05:21:00.419Z,19.00
2022-10-04T05:22:00.499Z,18.00
2022-10-04T05:23:00.409Z,20.00
2022-10-04T05:24:00.389Z,18.00
2022-10-04T05:25:00.398Z,18.00
2022-10-04T05:26:00.386Z,20.00
2022-10-04T05:27:00.389Z,19.00
2022-10-04T05:28:00.418Z,19.00
2022-10-04T05:29:00.356Z,21.00
2022-10-04T05:30:00.348Z,22.00
2022-10-04T05:31:00.337Z,23.00
2022-10-04T05:32:00.424Z,23.00
2022-10-04T05:33:00.330Z,25.00
2022-10-04T05:34:00.342Z,27.00
2022-10-04T05:35:00.345Z,29.00
2022-10-04T05:36:00.303Z,32.00
2022-10-04T05:37:00.300Z,34.00
2022-10-04T05:38:00.286Z,36.00
2022-10-04T05:39:00.283Z,41.00
2022-10-04T05:40:00.283Z,44.00
2022-10-04T05:41:00.286Z,48.00
2022-10-04T05:42:00.273Z,52.00
2022-10-04T05:43:00.258Z,56.00
2022-10-04T05:44:00.260Z,61.00
2022-10-04T05:45:00.241Z,69.00
2022-10-04T05:46:00.267Z,71.00
2022-10-04T05:47:00.233Z,74.00
2022-10-04T05:48:00.224Z,82.00
2022-10-04T05:49:00.235Z,85.00
2022-10-04T05:50:00.212Z,90.00
2022-10-04T05:51:00.210Z,90.00
2022-10-04T05:52:00.209Z,92.00
2022-10-04T05:53:00.209Z,92.00
2022-10-04T05:54:00.203Z,90.00
2022-10-04T05:55:00.214Z,89.00
2022-10-04T05:56:00.171Z,92.00
2022-10-04T05:57:00.177Z,94.00
2022-10-04T05:58:00.151Z,97.00
2022-10-04T05:59:00.170Z,98.00
2022-10-04T06:00:04.208Z,103.00
2022-10-04T06:01:00.212Z,109.00
2022-10-04T06:02:00.258Z,116.00
2022-10-04T06:03:00.127Z,126.00
2022-10-04T06:04:00.129Z,135.00
2022-10-04T06:05:00.130Z,143.00
2022-10-04T06:06:00.106Z,153.00
2022-10-04T06:07:00.120Z,167.00
2022-10-04T06:08:00.086Z,175.00
2022-10-04T06:09:00.090Z,184.00
2022-10-04T06:10:00.071Z,191.00
2022-10-04T06:11:00.074Z,201.00
2022-10-04T06:12:00.064Z,212.00
2022-10-04T06:13:00.097Z,224.00
2022-10-04T06:14:00.039Z,239.00
2022-10-04T06:15:00.031Z,246.00
2022-10-04T06:16:00.059Z,256.00
2022-10-04T06:17:00.125Z,270.00
2022-10-04T06:18:00.011Z,281.00
2022-10-04T06:19:00.002Z,294.00
2022-10-04T06:20:00.011Z,307.00
2022-10-04T06:20:59.996Z,318.00
2022-10-04T06:21:59.982Z,316.00
2022-10-04T06:23:00.010Z,318.00
2022-10-04T06:23:59.966Z,319.00
2022-10-04T06:24:59.959Z,311.00
2022-10-04T06:25:59.969Z,318.00
2022-10-04T06:26:59.948Z,319.00
2022-10-04T06:28:00.035Z,325.00
2022-10-04T06:28:59.941Z,341.00
2022-10-04T06:29:59.951Z,354.00
2022-10-04T06:31:00.002Z,374.00
2022-10-04T06:31:59.915Z,392.00
2022-10-04T06:32:59.948Z,406.00
2022-10-04T06:33:59.900Z,430.00
2022-10-04T06:34:59.920Z,433.00
2022-10-04T06:35:59.892Z,446.00
2022-10-04T06:36:59.922Z,446.00
2022-10-04T06:37:59.886Z,468.00
2022-10-04T06:39:03.434Z,490.00
2022-10-04T06:39:59.862Z,513.00
2022-10-04T06:40:59.857Z,515.00
2022-10-04T06:41:59.847Z,514.00
2022-10-04T06:42:59.894Z,538.00
2022-10-04T06:43:59.842Z,574.00
2022-10-04T06:44:59.872Z,588.00
2022-10-04T06:45:59.887Z,583.00
2022-10-04T06:46:59.834Z,591.00
2022-10-04T06:47:59.844Z,593.00
2022-10-04T06:48:59.828Z,576.00
2022-10-04T06:49:59.810Z,582.00
2022-10-04T06:50:59.814Z,569.00
2022-10-04T06:51:59.791Z,572.00
2022-10-04T06:52:59.782Z,567.00
2022-10-04T06:53:59.801Z,556.00
2022-10-04T06:54:59.784Z,551.00
2022-10-04T06:55:59.782Z,555.00
2022-10-04T06:56:59.757Z,578.00
2022-10-04T06:57:59.745Z,587.00
2022-10-04T06:58:59.759Z,593.00
2022-10-04T06:59:59.741Z,595.00
2022-10-04T07:00:59.762Z,630.00
2022-10-04T07:01:59.814Z,689.00
2022-10-04T07:02:59.715Z,664.00
2022-10-04T07:03:59.710Z,670.00
2022-10-04T07:05:15.040Z,655.00
2022-10-04T07:06:00.696Z,660.00
2022-10-04T07:06:59.697Z,660.00
2022-10-04T07:07:59.699Z,669.00
2022-10-04T07:08:59.732Z,660.00
2022-10-04T07:09:59.696Z,663.00
2022-10-04T07:10:59.677Z,680.00
2022-10-04T07:11:59.651Z,647.00
2022-10-04T07:12:59.648Z,669.00
2022-10-04T07:13:59.639Z,661.00
2022-10-04T07:14:59.630Z,648.00
2022-10-04T07:15:59.672Z,661.00
2022-10-04T07:16:59.619Z,692.00
2022-10-04T07:17:59.609Z,779.00
2022-10-04T07:18:59.598Z,817.00
2022-10-04T07:19:59.594Z,851.00
2022-10-04T07:20:59.593Z,992.00
2022-10-04T07:21:59.611Z,1014.00
2022-10-04T07:22:59.575Z,1038.00
2022-10-04T07:23:59.573Z,1104.00
2022-10-04T07:24:59.559Z,1060.00
2022-10-04T07:25:59.551Z,1073.00
2022-10-04T07:26:59.561Z,1176.00
2022-10-04T07:27:59.589Z,1297.00
2022-10-04T07:28:59.531Z,1240.00
2022-10-04T07:29:59.516Z,1237.00
2022-10-04T07:30:59.581Z,1271.00
2022-10-04T07:31:59.526Z,1302.00
2022-10-04T07:32:59.511Z,1329.00
2022-10-04T07:33:59.508Z,1361.00
2022-10-04T07:34:59.487Z,1391.00
2022-10-04T07:35:59.502Z,1402.00
2022-10-04T07:36:59.504Z,1375.00
2022-10-04T07:37:59.466Z,1335.00
2022-10-04T07:38:59.463Z,1266.00
2022-10-04T07:39:59.456Z,1260.00
2022-10-04T07:40:59.441Z,1398.00
2022-10-04T07:41:59.453Z,1531.00
2022-10-04T07:42:59.445Z,1322.00
2022-10-04T07:43:59.442Z,1276.00
2022-10-04T07:44:59.442Z,1315.00
2022-10-04T07:45:59.451Z,1352.00
2022-10-04T07:46:59.406Z,1523.00
2022-10-04T07:47:59.400Z,1747.00
2022-10-04T07:48:59.406Z,2191.00
2022-10-04T07:49:59.382Z,2433.00
2022-10-04T07:50:59.393Z,2617.00
2022-10-04T07:51:59.364Z,3092.00
2022-10-04T07:52:59.359Z,3010.00
2022-10-04T07:53:59.358Z,2851.00
2022-10-04T07:54:59.379Z,3847.00
2022-10-04T07:55:59.340Z,3857.00
2022-10-04T07:56:59.325Z,5059.00
2022-10-04T07:57:59.323Z,5419.00
2022-10-04T07:58:59.319Z,5499.00
2022-10-04T07:59:59.308Z,5186.00
2022-10-04T08:00:59.338Z,5935.00
2022-10-04T08:01:59.342Z,4830.00
2022-10-04T08:02:59.360Z,4707.00
2022-10-04T08:03:59.270Z,4213.00
2022-10-04T08:04:59.279Z,3878.00
2022-10-04T08:05:59.261Z,4475.00
2022-10-04T08:06:59.267Z,4287.00
2022-10-04T08:07:59.248Z,3176.00
2022-10-04T08:08:59.236Z,2689.00
2022-10-04T08:09:59.229Z,2462.00
2022-10-04T08:10:59.223Z,2224.00
2022-10-04T08:11:59.237Z,2545.00
2022-10-04T08:12:59.238Z,3019.00
2022-10-04T08:13:59.225Z,3154.00
2022-10-04T08:14:59.202Z,2611.00
2022-10-04T08:15:59.346Z,3519.00
2022-10-04T08:16:59.183Z,4106.00
2022-10-04T08:17:59.197Z,4346.00
2022-10-04T08:18:59.168Z,2876.00
2022-10-04T08:19:59.160Z,4773.00
2022-10-04T08:20:59.197Z,3721.00
2022-10-04T08:21:59.144Z,2754.00
2022-10-04T08:22:59.129Z,2044.00
2022-10-04T08:23:59.193Z,2287.00
2022-10-04T08:24:59.122Z,4988.00
2022-10-04T08:25:59.122Z,3868.00
2022-10-04T08:26:59.126Z,6323.00
2022-10-04T08:27:59.151Z,5359.00
2022-10-04T08:28:59.096Z,6505.00
2022-10-04T08:29:59.088Z,7355.00
2022-10-04T08:30:59.117Z,8844.00
2022-10-04T08:32:04.259Z,8923.00
2022-10-04T08:33:00.097Z,17408.00
2022-10-04T08:33:59.060Z,15589.00
2022-10-04T08:34:59.048Z,12944.00
2022-10-04T08:35:59.044Z,11563.00
2022-10-04T08:36:59.025Z,7496.00
2022-10-04T08:37:59.057Z,6444.00
2022-10-04T08:38:59.016Z,5667.00
2022-10-04T08:39:59.014Z,10468.00
2022-10-04T08:40:59.021Z,8988.00
2022-10-04T08:41:58.982Z,61684.00
2022-10-04T08:42:58.977Z,10118.00
2022-10-04T08:43:58.971Z,6985.00
2022-10-04T08:44:58.962Z,5942.00
2022-10-04T08:45:58.982Z,5109.00
2022-10-04T08:46:59.009Z,3393.00
2022-10-04T08:47:58.962Z,3174.00
2022-10-04T08:48:58.940Z,3130.00
2022-10-04T08:49:58.918Z,2952.00
2022-10-04T08:50:58.907Z,2909.00
2022-10-04T08:51:58.923Z,3051.00
2022-10-04T08:52:58.909Z,3608.00
2022-10-04T08:53:58.878Z,3533.00
2022-10-04T08:54:58.895Z,2965.00
2022-10-04T08:55:58.868Z,2898.00
2022-10-04T08:56:58.857Z,2910.00
2022-10-04T08:57:58.876Z,3676.00
2022-10-04T08:58:58.841Z,4513.00
2022-10-04T08:59:58.833Z,3698.00
2022-10-04T09:00:58.849Z,3638.00
2022-10-04T09:01:58.835Z,14599.00
2022-10-04T09:02:58.863Z,19694.00
2022-10-04T09:03:58.813Z,9753.00
2022-10-04T09:04:58.811Z,6943.00
2022-10-04T09:05:58.782Z,5276.00
2022-10-04T09:06:58.774Z,4472.00
2022-10-04T09:07:58.780Z,3670.00
2022-10-04T09:08:58.752Z,3245.00
2022-10-04T09:09:58.803Z,3243.00
2022-10-04T09:10:58.745Z,3125.00
2022-10-04T09:11:58.735Z,3103.00
2022-10-04T09:12:58.738Z,3482.00
2022-10-04T09:13:58.719Z,3755.00
2022-10-04T09:14:58.730Z,3821.00
2022-10-04T09:15:58.788Z,3708.00
2022-10-04T09:16:58.699Z,3793.00
2022-10-04T09:17:58.716Z,4448.00
2022-10-04T09:18:58.680Z,4524.00
2022-10-04T09:20:13.933Z,4600.00
2022-10-04T09:20:59.685Z,4765.00
2022-10-04T09:22:02.029Z,4559.00
2022-10-04T09:23:06.632Z,4620.00
2022-10-04T09:23:58.636Z,4528.00
2022-10-04T09:24:58.638Z,5026.00
2022-10-04T09:25:58.620Z,5976.00
2022-10-04T09:26:58.635Z,6096.00
2022-10-04T09:27:58.688Z,6181.00
2022-10-04T09:29:03.930Z,6074.00
2022-10-04T09:29:59.604Z,5973.00
2022-10-04T09:30:58.609Z,5601.00
2022-10-04T09:31:58.579Z,5437.00
2022-10-04T09:32:58.571Z,5236.00
2022-10-04T09:33:58.560Z,5181.00
2022-10-04T09:34:58.578Z,5488.00
2022-10-04T09:35:58.540Z,5634.00
2022-10-04T09:36:58.546Z,5516.00
2022-10-04T09:37:58.562Z,5448.00
2022-10-04T09:39:25.309Z,5471.00
2022-10-04T09:39:59.526Z,5562.00
2022-10-04T09:40:58.507Z,5292.00
2022-10-04T09:41:58.507Z,5085.00
2022-10-04T09:42:58.493Z,5102.00
2022-10-04T09:43:58.479Z,4772.00
2022-10-04T09:44:58.466Z,4864.00
2022-10-04T09:45:58.513Z,4469.00
2022-10-04T09:46:58.512Z,4883.00
2022-10-04T09:47:58.459Z,5214.00
2022-10-04T09:48:58.444Z,5121.00
2022-10-04T09:49:58.423Z,4856.00
2022-10-04T09:50:58.438Z,4703.00
2022-10-04T09:51:58.405Z,4080.00
2022-10-04T09:52:58.431Z,4155.00
2022-10-04T09:53:58.421Z,4172.00
2022-10-04T09:54:58.398Z,3719.00
2022-10-04T09:55:58.384Z,4452.00
2022-10-04T09:56:58.391Z,5148.00
2022-10-04T09:57:58.359Z,5306.00
2022-10-04T09:58:58.360Z,5293.00
2022-10-04T09:59:58.343Z,5200.00
2022-10-04T10:00:58.353Z,5118.00
2022-10-04T10:01:58.406Z,5062.00
2022-10-04T10:02:58.452Z,5021.00
2022-10-04T10:03:58.323Z,4913.00
2022-10-04T10:04:58.306Z,4741.00
2022-10-04T10:05:58.292Z,4852.00
2022-10-04T10:06:58.293Z,4849.00
2022-10-04T10:07:58.286Z,4798.00
2022-10-04T10:08:58.305Z,4804.00
2022-10-04T10:09:58.274Z,4694.00
2022-10-04T10:10:58.274Z,4548.00
2022-10-04T10:11:58.259Z,4393.00
2022-10-04T10:12:58.238Z,4475.00
2022-10-04T10:13:58.242Z,4452.00
2022-10-04T10:14:58.237Z,4340.00
2022-10-04T10:15:58.284Z,4333.00
2022-10-04T10:16:58.235Z,4281.00
2022-10-04T10:17:58.193Z,4166.00
2022-10-04T10:18:58.185Z,4133.00
2022-10-04T10:19:58.194Z,4110.00
2022-10-04T10:20:58.166Z,3839.00
2022-10-04T10:21:58.148Z,3970.00
2022-10-04T10:22:58.158Z,3941.00
2022-10-04T10:23:58.140Z,3891.00
2022-10-04T10:24:58.621Z,3954.00
2022-10-04T10:25:58.141Z,4114.00
2022-10-04T10:26:58.151Z,4109.00
2022-10-04T10:27:58.156Z,4155.00
2022-10-04T10:28:58.109Z,4128.00
2022-10-04T10:29:58.095Z,4155.00
2022-10-04T10:30:58.127Z,4290.00
2022-10-04T10:31:58.103Z,4145.00
2022-10-04T10:32:58.070Z,4236.00
2022-10-04T10:33:58.056Z,4120.00
2022-10-04T10:34:58.047Z,3905.00
2022-10-04T10:35:58.042Z,3925.00
2022-10-04T10:36:58.057Z,4080.00
2022-10-04T10:38:02.311Z,4033.00
2022-10-04T10:38:59.031Z,4072.00
2022-10-04T10:39:58.014Z,4062.00
2022-10-04T10:40:58.002Z,4028.00
2022-10-04T10:41:58.005Z,4083.00
2022-10-04T10:42:57.985Z,3857.00
2022-10-04T10:43:57.968Z,3803.00
2022-10-04T10:44:57.990Z,3809.00
2022-10-04T10:45:57.980Z,3966.00
2022-10-04T10:46:57.986Z,3921.00
2022-10-04T10:47:57.937Z,3568.00
2022-10-04T10:48:57.956Z,3877.00
2022-10-04T10:49:57.929Z,3937.00
2022-10-04T10:50:57.916Z,3943.00
2022-10-04T10:51:57.905Z,3893.00
2022-10-04T10:52:57.896Z,3759.00
2022-10-04T10:53:57.901Z,3916.00
2022-10-04T10:54:57.903Z,3922.00
2022-10-04T10:55:57.877Z,3956.00
2022-10-04T10:56:57.868Z,3954.00
2022-10-04T10:57:57.855Z,3928.00
2022-10-04T10:58:57.851Z,3909.00
2022-10-04T10:59:57.907Z,3902.00
2022-10-04T11:00:57.833Z,3831.00
2022-10-04T11:01:57.966Z,3871.00
2022-10-04T11:03:12.100Z,3815.00
2022-10-04T11:03:58.853Z,3704.00
2022-10-04T11:04:57.849Z,3591.00
2022-10-04T11:05:57.789Z,3476.00
2022-10-04T11:06:57.787Z,3502.00
2022-10-04T11:07:57.770Z,3631.00
2022-10-04T11:08:57.787Z,3665.00
2022-10-04T11:09:57.761Z,3716.00
2022-10-04T11:10:57.783Z,3732.00
2022-10-04T11:11:57.788Z,3744.00
2022-10-04T11:12:57.747Z,3680.00
2022-10-04T11:13:57.723Z,3683.00
2022-10-04T11:14:57.720Z,3667.00
2022-10-04T11:15:57.787Z,3631.00
2022-10-04T11:16:57.706Z,3618.00
2022-10-04T11:17:57.720Z,3612.00
2022-10-04T11:18:57.691Z,3071.00
2022-10-04T11:19:57.678Z,3593.00
2022-10-04T11:20:57.677Z,3567.00
2022-10-04T11:21:57.681Z,3517.00
2022-10-04T11:22:57.659Z,3492.00
2022-10-04T11:23:57.666Z,3459.00
2022-10-04T11:24:57.634Z,3420.00
2022-10-04T11:25:57.628Z,3424.00
2022-10-04T11:26:57.657Z,3412.00
2022-10-04T11:27:57.731Z,3372.00
2022-10-04T11:28:57.616Z,3329.00
2022-10-04T11:29:57.592Z,3320.00
2022-10-04T11:30:57.651Z,3309.00
2022-10-04T11:31:57.575Z,3278.00
2022-10-04T11:32:57.592Z,3254.00
2022-10-04T11:33:57.593Z,3237.00
2022-10-04T11:34:57.579Z,3217.00
2022-10-04T11:35:57.568Z,3178.00
2022-10-04T11:36:57.543Z,3181.00
2022-10-04T11:37:57.528Z,3170.00
2022-10-04T11:38:57.528Z,3146.00
2022-10-04T11:39:57.536Z,3124.00
2022-10-04T11:40:57.521Z,3106.00
2022-10-04T11:41:57.501Z,3090.00
2022-10-04T11:42:57.495Z,3083.00
2022-10-04T11:43:57.494Z,3060.00
2022-10-04T11:44:57.497Z,3037.00
2022-10-04T11:45:57.528Z,3008.00
2022-10-04T11:46:57.562Z,3000.00
2022-10-04T11:47:57.464Z,2989.00
2022-10-04T11:48:57.455Z,2973.00
2022-10-04T11:49:57.444Z,2959.00
2022-10-04T11:50:57.466Z,2935.00
2022-10-04T11:52:01.912Z,2928.00
2022-10-04T11:52:58.418Z,2925.00
2022-10-04T11:53:57.438Z,2899.00
2022-10-04T11:54:57.401Z,2880.00
2022-10-04T11:55:57.427Z,2859.00
2022-10-04T11:56:57.397Z,2854.00
2022-10-04T11:57:57.386Z,2841.00
2022-10-04T11:58:57.394Z,2836.00
2022-10-04T11:59:57.362Z,2819.00
2022-10-04T12:00:57.355Z,2807.00
2022-10-04T12:01:57.341Z,2794.00
2022-10-04T12:02:57.335Z,2774.00
2022-10-04T12:03:57.443Z,2752.00
2022-10-04T12:04:57.409Z,2732.00
2022-10-04T12:05:57.306Z,2719.00
2022-10-04T12:06:57.319Z,2711.00
2022-10-04T12:07:57.302Z,2694.00
2022-10-04T12:08:57.291Z,2685.00
2022-10-04T12:10:00.768Z,2672.00
2022-10-04T12:10:57.291Z,2654.00
2022-10-04T12:11:57.278Z,2632.00
2022-10-04T12:12:57.262Z,2621.00
2022-10-04T12:13:57.253Z,2601.00
2022-10-04T12:14:57.256Z,2583.00
2022-10-04T12:15:57.288Z,2346.00
2022-10-04T12:16:57.249Z,2452.00
2022-10-04T12:17:57.224Z,2440.00
2022-10-04T12:18:57.233Z,2423.00
2022-10-04T12:19:57.204Z,2402.00
2022-10-04T12:20:57.222Z,2389.00
2022-10-04T12:21:57.182Z,2382.00
2022-10-04T12:22:57.196Z,2371.00
2022-10-04T12:23:57.195Z,2355.00
2022-10-04T12:24:57.167Z,2344.00
2022-10-04T12:25:57.163Z,2327.00
2022-10-04T12:26:57.166Z,2311.00
2022-10-04T12:27:57.187Z,2293.00
2022-10-04T12:28:57.139Z,2280.00
2022-10-04T12:29:57.144Z,2274.00
2022-10-04T12:30:57.128Z,2256.00
2022-10-04T12:31:57.136Z,2245.00
2022-10-04T12:32:58.341Z,2231.00
2022-10-04T12:33:57.096Z,2216.00
2022-10-04T12:34:57.085Z,2209.00
2022-10-04T12:35:57.084Z,2195.00
2022-10-04T12:36:57.071Z,2179.00
2022-10-04T12:37:57.065Z,2126.00
2022-10-04T12:38:57.074Z,2119.00